Time;durP1;ratioP1;P1;durP2;ratioP2;P2;SDS_P1;SDS_P2;PMS_P1;PMS_P2;Temp;Humidity;BMP_temperature;BMP_pressure;BME280_temperature;BME280_humidity;BME280_pressure;Samples;Min_cycle;Max_cycle;Signal;HPM_P1;HPM_P2
2022/12/20 00:01:43;;;;;;;;;;;;;;;-5.61;79.32;101556.30;105767;1318;137669;-60
2022/12/20 00:04:11;;;;;;;30.90;12.50;;;;;;;-5.64;79.55;101551.41;106272;1294;22229;-60
2022/12/20 00:06:38;;;;;;;27.20;12.10;;;;;;;-5.69;79.34;101545.71;106239;1308;22325;-60
2022/12/20 00:09:06;;;;;;;25.80;12.80;;;;;;;-5.73;79.39;101535.67;106168;1308;137710;-60
2022/12/20 00:11:33;;;;;;;28.40;13.10;;;;;;;-5.72;79.27;101533.38;106273;1308;22194;-60
2022/12/20 00:13:59;;;;;;;30.50;12.50;;;;;;;-5.72;79.06;101528.04;106166;1294;142365;-60
2022/12/20 00:16:27;;;;;;;25.30;11.40;;;;;;;-5.72;79.13;101526.74;106314;1300;22181;-60
2022/12/20 00:18:56;;;;;;;25.30;11.60;;;;;;;-5.70;79.08;101522.94;106322;1309;22276;-60
2022/12/20 00:21:23;;;;;;;24.50;11.10;;;;;;;-5.66;78.80;101510.14;106109;1309;138204;-60
2022/12/20 00:23:53;;;;;;;;;;;;;;;-5.64;78.63;101501.11;106304;1302;22404;-60
2022/12/20 00:26:21;;;;;;;24.90;10.80;;;;;;;-5.61;78.32;101497.55;106283;1308;123666;-60
2022/12/20 00:28:48;;;;;;;20.60;11.10;;;;;;;-5.59;77.96;101496.17;106270;1309;23480;-60
2022/12/20 00:31:16;;;;;;;25.00;10.30;;;;;;;-5.58;77.79;101491.67;106188;1309;138447;-60
2022/12/20 00:33:47;;;;;;;25.80;11.50;;;;;;;-5.55;77.53;101484.92;106340;1308;22161;-60
2022/12/20 00:36:14;;;;;;;26.90;11.60;;;;;;;-5.53;77.34;101481.95;106222;1303;22441;-60
2022/12/20 00:38:43;;;;;;;;;;;;;;;-5.51;77.05;101478.62;106217;1308;139294;-60
2022/12/20 00:41:11;;;;;;;34.90;11.10;;;;;;;-5.50;76.99;101473.23;106250;1309;22170;-55
2022/12/20 00:43:39;;;;;;;23.20;9.80;;;;;;;-5.49;76.58;101470.55;106092;1310;138609;-55
2022/12/20 00:46:06;;;;;;;21.20;10.80;;;;;;;-5.50;76.38;101468.09;106277;1308;22150;-55
2022/12/20 00:48:33;;;;;;;22.70;10.50;;;;;;;-5.48;76.24;101469.02;106268;1309;22451;-54
2022/12/20 00:51:00;;;;;;;;;;;;;;;-5.46;76.19;101469.08;106021;1309;137851;-55
2022/12/20 00:53:27;;;;;;;18.60;8.20;;;;;;;-5.45;75.91;101473.77;106209;1308;23160;-55
2022/12/20 00:55:53;;;;;;;;;;;;;;;-5.44;75.99;101475.79;106148;1308;138493;-55
2022/12/20 00:58:20;;;;;;;16.50;7.60;;;;;;;-5.42;75.93;101475.33;106208;1309;22245;-55
2022/12/20 01:00:47;;;;;;;;;;;;;;;-5.41;75.97;101479.11;106103;1310;22499;-55
2022/12/20 01:03:22;;;;;;;14.80;8.30;;;;;;;-5.40;75.88;101475.17;106235;1304;124753;-55
2022/12/20 01:05:59;;;;;;;20.10;8.70;;;;;;;-5.41;75.89;101467.83;106142;1303;22357;-55
2022/12/20 01:08:27;;;;;;;21.10;7.60;;;;;;;-5.44;75.81;101464.45;106033;1296;138066;-55
2022/12/20 01:11:05;;;;;;;20.40;10.10;;;;;;;-5.47;75.69;101467.50;106434;1299;22132;-55
2022/12/20 01:13:32;;;;;;;22.80;10.40;;;;;;;-5.48;76.01;101464.98;106347;1306;138706;-55
2022/12/20 01:16:06;;;;;;;19.80;10.40;;;;;;;-5.49;75.94;101460.45;106458;1305;23393;-55
2022/12/20 01:18:33;;;;;;;20.30;10.10;;;;;;;-5.49;75.92;101458.86;106460;1306;22159;-55
2022/12/20 01:21:04;;;;;;;19.60;9.50;;;;;;;-5.49;75.96;101458.30;106258;1307;139333;-55
2022/12/20 01:23:31;;;;;;;19.40;8.90;;;;;;;-5.50;76.11;101451.27;106468;1306;22121;-55
2022/12/20 01:26:01;;;;;;;18.90;9.50;;;;;;;-5.49;76.33;101445.88;106367;1305;137510;-55
2022/12/20 01:28:28;;;;;;;26.50;12.00;;;;;;;-5.49;76.32;101443.27;106458;1298;22179;-55
2022/12/20 01:30:55;;;;;;;;;;;;;;;-5.51;76.27;101444.25;106490;1306;23079;-55
2022/12/20 01:33:21;;;;;;;17.90;9.50;;;;;;;-5.51;76.40;101445.16;106413;1298;124152;-55
2022/12/20 01:36:07;;;;;;;;;;;;;;;-5.53;76.24;101437.34;106525;1306;22348;-55
2022/12/20 01:38:34;;;;;;;21.50;9.60;;;;;;;-5.55;76.14;101439.44;106334;1290;124347;-55
2022/12/20 01:41:01;;;;;;;16.10;8.20;;;;;;;-5.57;76.20;101439.59;106522;1305;22155;-60
2022/12/20 01:44:23;;;;;;;22.30;10.90;;;;;;;-5.57;76.23;101434.62;106332;1305;139122;-60
2022/12/20 01:46:51;;;;;;;24.10;10.70;;;;;;;-5.59;76.12;101412.65;105855;1311;22212;-60
2022/12/20 01:49:19;;;;;;;24.30;11.10;;;;;;;-5.61;76.21;101399.68;105801;1314;139208;-60
2022/12/20 01:51:48;;;;;;;28.60;11.60;;;;;;;-5.61;76.02;101397.94;105884;1306;22178;-60
2022/12/20 01:54:27;;;;;;;26.60;11.50;;;;;;;-5.63;76.09;101390.79;105848;1312;22533;-60
2022/12/20 01:56:56;;;;;;;26.00;10.70;;;;;;;-5.65;76.16;101391.45;105791;1306;138282;-60
2022/12/20 01:59:23;;;;;;;23.60;12.10;;;;;;;-5.66;76.19;101392.64;105862;1311;22275;-60
2022/12/20 02:01:49;;;;;;;19.00;10.00;;;;;;;-5.67;76.11;101387.71;105803;1313;138037;-60
2022/12/20 02:04:16;;;;;;;;;;;;;;;-5.68;76.13;101388.88;105884;1306;22948;-60
2022/12/20 02:06:43;;;;;;;18.00;9.70;;;;;;;-5.69;76.08;101382.15;106064;1311;22274;-61
2022/12/20 02:09:11;;;;;;;21.50;10.00;;;;;;;-5.67;76.14;101372.32;105853;1297;139618;-60
2022/12/20 02:11:40;;;;;;;;;;;;;;;-5.64;75.94;101359.74;106035;1298;22495;-60
2022/12/20 02:14:25;;;;;;;28.80;10.20;;;;;;;-5.63;76.00;101346.39;105782;1313;125282;-60
2022/12/20 02:17:00;;;;;;;24.10;10.00;;;;;;;-5.63;75.95;101335.90;106034;1311;23281;-60
2022/12/20 02:19:46;;;;;;;18.40;9.90;;;;;;;-5.61;75.97;101339.51;105674;1311;141094;-60
2022/12/20 02:22:29;;;;;;;22.60;11.50;;;;;;;-5.58;76.01;101336.77;106461;1305;22142;-60
2022/12/20 02:25:13;;;;;;;21.00;11.00;;;;;;;-5.54;75.86;101328.38;106464;1305;22481;-60
2022/12/20 02:27:53;;;;;;;22.60;10.60;;;;;;;-5.52;75.82;101322.05;106315;1308;22332;-60
2022/12/20 02:30:21;;;;;;;25.20;10.80;;;;;;;-5.51;75.69;101317.50;106346;1307;22403;-60
2022/12/20 02:33:06;;;;;;;15.50;9.30;;;;;;;-5.49;75.39;101313.69;106315;1305;138512;-60
2022/12/20 02:35:34;;;;;;;19.20;8.50;;;;;;;-5.48;75.09;101307.51;106408;1300;22122;-60
2022/12/20 02:38:23;;;;;;;21.60;9.40;;;;;;;-5.48;74.73;101305.23;106309;1308;138447;-60
2022/12/20 02:40:51;;;;;;;25.90;11.10;;;;;;;-5.47;74.45;101302.70;103447;1298;22619;-52
2022/12/20 02:46:03;;;;;;;21.70;9.80;;;;;;;-5.44;74.06;101300.00;101791;1294;22510;-54
2022/12/20 02:48:31;;;;;;;21.00;10.20;;;;;;;-5.44;73.71;101296.77;102036;1297;23910;-56
2022/12/20 02:50:58;;;;;;;29.40;12.00;;;;;;;-5.43;73.40;101295.13;101734;1300;139925;-54
2022/12/20 02:53:25;;;;;;;31.60;12.00;;;;;;;-5.42;73.29;101289.92;101780;1300;22614;-54
2022/12/20 02:55:56;;;;;;;25.00;10.60;;;;;;;-5.39;73.03;101295.91;102040;1290;137941;-55
2022/12/20 02:58:31;;;;;;;37.60;11.20;;;;;;;-5.36;72.60;101284.15;106244;1313;22982;-55
2022/12/20 03:01:03;;;;;;;22.30;9.50;;;;;;;-5.32;72.26;101276.64;106393;1300;22851;-55
2022/12/20 03:03:31;;;;;;;23.70;9.20;;;;;;;-5.27;71.84;101271.69;106301;1307;137870;-55
2022/12/20 03:05:58;;;;;;;23.90;9.50;;;;;;;-5.24;71.49;101264.52;106504;1305;23132;-55
2022/12/20 03:08:25;;;;;;;28.20;11.20;;;;;;;-5.20;70.87;101255.21;106270;1307;138363;-56
2022/12/20 03:10:52;;;;;;;25.80;9.60;;;;;;;-5.15;70.54;101249.35;106430;1307;22215;-55
2022/12/20 03:13:20;;;;;;;30.70;10.30;;;;;;;-5.10;70.04;101245.42;106319;1308;138180;-55
2022/12/20 03:15:54;;;;;;;30.30;10.10;;;;;;;-5.06;70.01;101244.39;106386;1298;22378;-55
2022/12/20 03:18:21;;;;;;;;;;;;;;;-5.02;69.80;101240.02;106426;1305;22333;-55
2022/12/20 03:20:48;;;;;;;20.50;8.80;;;;;;;-5.01;69.55;101235.80;106386;1300;125435;-55
2022/12/20 03:23:15;;;;;;;19.40;8.00;;;;;;;-4.99;69.41;101235.16;106478;1305;22899;-56
2022/12/20 03:25:42;;;;;;;27.00;8.30;;;;;;;-4.98;69.41;101240.02;106362;1305;138278;-55
2022/12/20 03:28:10;;;;;;;18.20;8.50;;;;;;;-4.96;69.28;101233.92;106439;1305;22268;-55
2022/12/20 03:30:37;;;;;;;17.20;8.40;;;;;;;-4.95;69.36;101231.36;106432;1304;22298;-55
2022/12/20 03:33:03;;;;;;;;;;;;;;;-4.94;69.28;101232.14;106396;1306;138238;-55
2022/12/20 03:35:30;;;;;;;16.00;6.80;;;;;;;-4.91;69.33;101228.20;106430;1305;22269;-55
2022/12/20 03:37:57;;;;;;;;;;;;;;;-4.91;69.20;101226.80;106367;1306;138467;-55
2022/12/20 03:40:24;;;;;;;24.00;9.60;;;;;;;-4.90;69.15;101222.95;104047;1300;22596;-59
2022/12/20 03:42:51;;;;;;;22.90;12.50;;;;;;;-4.88;68.79;101216.81;102289;1298;22492;-59
2022/12/20 03:45:18;;;;;;;41.00;14.90;;;;;;;-4.86;68.76;101215.95;101910;1284;138267;-59
2022/12/20 03:47:45;;;;;;;29.40;12.40;;;;;;;-4.85;68.56;101207.70;102088;1298;24265;-60
2022/12/20 03:50:11;;;;;;;24.60;9.90;;;;;;;-4.84;68.19;101199.51;102055;1290;138309;-60
2022/12/20 03:52:38;;;;;;;30.10;10.50;;;;;;;-4.83;68.22;101196.54;102008;1291;23774;-60
2022/12/20 03:55:06;;;;;;;19.00;9.30;;;;;;;-4.81;67.96;101184.54;106251;1298;22124;-61
2022/12/20 03:57:38;;;;;;;18.80;8.30;;;;;;;-4.78;67.62;101182.55;106484;1305;22105;-61
2022/12/20 04:00:15;;;;;;;19.30;9.30;;;;;;;-4.74;67.25;101180.62;106452;1297;22433;-61
2022/12/20 04:02:44;;;;;;;19.10;8.30;;;;;;;-4.71;66.89;101174.66;106341;1305;139875;-61
2022/12/20 04:05:11;;;;;;;16.50;6.80;;;;;;;-4.66;66.36;101161.38;106440;1300;22256;-61
2022/12/20 04:07:38;;;;;;;22.10;10.30;;;;;;;-4.60;66.07;101153.98;106325;1306;139353;-61
2022/12/20 04:10:05;;;;;;;20.20;8.80;;;;;;;-4.55;65.71;101142.09;106450;1298;23020;-61
2022/12/20 04:12:32;;;;;;;17.60;8.90;;;;;;;-4.51;65.25;101127.94;106426;1306;22959;-61
2022/12/20 04:14:59;;;;;;;16.20;6.90;;;;;;;-4.45;65.04;101132.75;106321;1302;137788;-61
2022/12/20 04:17:26;;;;;;;16.30;7.50;;;;;;;-4.41;64.91;101122.36;106420;1291;22343;-61
2022/12/20 04:19:53;;;;;;;14.30;6.40;;;;;;;-4.35;64.58;101122.20;106387;1305;138899;-61
2022/12/20 04:22:21;;;;;;;14.40;6.00;;;;;;;-4.31;64.44;101120.59;106451;1294;22105;-60
2022/12/20 04:24:53;;;;;;;13.40;6.00;;;;;;;-4.26;64.17;101117.93;106472;1308;22047;-61
2022/12/20 04:27:25;;;;;;;12.60;5.30;;;;;;;-4.22;63.75;101116.73;106326;1305;138198;-61
2022/12/20 04:29:52;;;;;;;11.90;5.80;;;;;;;-4.18;63.53;101114.64;106480;1308;22337;-61
2022/12/20 04:32:19;;;;;;;10.90;6.50;;;;;;;-4.15;63.38;101112.92;106337;1299;138405;-61
2022/12/20 04:34:46;;;;;;;14.10;6.00;;;;;;;-4.12;63.34;101112.31;106498;1291;22128;-61
2022/12/20 04:37:12;;;;;;;;;;;;;;;-4.08;63.39;101111.86;106434;1289;22399;-60
2022/12/20 04:39:49;;;;;;;13.50;6.50;;;;;;;-4.06;63.01;101108.64;106526;1305;22974;-61
2022/12/20 04:42:25;;;;;;;13.80;6.90;;;;;;;-4.04;62.81;101092.36;106439;1308;22342;-61
2022/12/20 04:44:52;;;;;;;14.20;7.30;;;;;;;-4.00;62.84;101090.77;106316;1306;138042;-61
2022/12/20 04:47:24;;;;;;;10.30;5.70;;;;;;;-3.97;62.59;101091.20;106456;1309;22230;-61
2022/12/20 04:49:51;;;;;;;15.00;7.00;;;;;;;-3.93;62.25;101086.11;106374;1300;138009;-61
2022/12/20 04:55:12;;;;;;;13.20;5.10;;;;;;;-3.82;61.14;101075.63;106471;1305;22782;-61
2022/12/20 04:57:39;;;;;;;;;;;;;;;-3.79;61.08;101069.11;106500;1306;23043;-61
2022/12/20 05:00:07;;;;;;;10.60;5.30;;;;;;;-3.73;61.27;101074.66;106481;1305;22197;-61
2022/12/20 05:02:35;;;;;;;12.90;5.40;;;;;;;-3.69;61.03;101073.80;106341;1308;137884;-61
2022/12/20 05:05:07;;;;;;;10.60;5.00;;;;;;;-3.65;60.89;101067.08;106461;1304;22121;-61
2022/12/20 05:07:39;;;;;;;12.70;4.80;;;;;;;-3.60;60.48;101058.67;106352;1305;138573;-61
2022/12/20 06:23:56;;;;;;;12.00;6.10;;;;;;;-2.98;54.73;100946.59;99912;1314;558202;-57
2022/12/20 06:26:23;;;;;;;;;;;;;;;-2.85;54.63;100950.28;101095;1294;139134;-56
2022/12/20 06:28:53;;;;;;;6.50;3.30;;;;;;;-2.82;54.86;100949.90;101171;1307;22501;-55
2022/12/20 06:31:24;;;;;;;8.30;5.30;;;;;;;-2.81;54.89;100940.70;101182;1300;25114;-57
2022/12/20 06:33:52;;;;;;;8.30;4.70;;;;;;;-2.80;54.45;100936.33;105578;1313;22987;-57
2022/12/20 06:36:21;;;;;;;9.20;4.60;;;;;;;-2.78;54.25;100936.50;105958;1296;22936;-58
2022/12/20 06:38:48;;;;;;;8.60;5.00;;;;;;;-2.77;54.16;100935.49;106053;1295;22155;-55
2022/12/20 06:41:15;;;;;;;11.20;4.70;;;;;;;-2.75;54.00;100939.42;106448;1298;22921;-55
2022/12/20 06:43:41;;;;;;;10.50;4.80;;;;;;;-2.75;54.00;100936.55;106487;1290;23158;-60
2022/12/20 06:46:09;;;;;;;9.10;4.50;;;;;;;-2.72;53.78;100940.27;106454;1291;22220;-60
2022/12/20 06:48:36;;;;;;;;;;;;;;;-2.71;54.00;100936.19;106530;1292;22350;-60
2022/12/20 06:51:04;;;;;;;8.30;4.30;;;;;;;-2.70;53.85;100937.51;106527;1305;22300;-60
2022/12/20 06:53:30;;;;;;;;;;;;;;;-2.69;53.82;100933.23;106548;1305;22371;-60
2022/12/20 06:55:57;;;;;;;8.90;4.60;;;;;;;-2.69;53.98;100934.09;106530;1305;22264;-59
2022/12/20 06:58:24;;;;;;;;;;;;;;;-2.68;54.05;100932.91;106570;1297;22349;-60
2022/12/20 07:00:51;;;;;;;8.80;4.30;;;;;;;-2.67;53.79;100926.21;106478;1305;22134;-61
2022/12/20 07:03:18;;;;;;;10.80;4.30;;;;;;;-2.64;53.53;100923.66;106536;1305;22142;-60
2022/12/20 07:05:49;;;;;;;;;;;;;;;-2.61;53.39;100926.29;106536;1304;22616;-60
2022/12/20 07:08:16;;;;;;;6.80;3.80;;;;;;;-2.59;53.12;100919.41;106356;1279;123871;-59
2022/12/20 07:10:43;;;;;;;10.70;4.70;;;;;;;-2.56;53.42;100915.96;106335;1286;22261;-60
2022/12/20 07:13:09;;;;;;;10.10;4.90;;;;;;;-2.53;53.41;100921.79;106266;1293;22912;-60
2022/12/20 07:15:36;;;;;;;9.50;5.10;;;;;;;-2.50;53.39;100917.25;106223;1293;139989;-60
2022/12/20 07:18:03;;;;;;;7.50;4.50;;;;;;;-2.46;53.55;100915.79;106366;1294;22227;-60
2022/12/20 07:20:30;;;;;;;;;;;;;;;-2.43;53.25;100914.48;106281;1298;137265;-56
2022/12/20 07:22:58;;;;;;;17.90;9.00;;;;;;;-2.41;53.00;100916.73;106092;1302;22145;-57
2022/12/20 07:25:25;;;;;;;48.00;19.50;;;;;;;-2.38;53.56;100920.78;106187;1296;22293;-57
2022/12/20 07:27:52;;;;;;;19.00;9.10;;;;;;;-2.35;53.43;100920.34;106233;1295;137461;-58
2022/12/20 07:30:19;;;;;;;19.70;7.50;;;;;;;-2.35;53.63;100916.41;106291;1305;22231;-57
2022/12/20 07:32:46;;;;;;;12.90;5.70;;;;;;;-2.33;53.48;100913.48;106126;1308;138229;-57
2022/12/20 07:35:13;;;;;;;13.20;5.90;;;;;;;-2.32;53.43;100912.02;106328;1308;22997;-58
2022/12/20 07:37:39;;;;;;;;;;;;;;;-2.30;53.77;100911.65;106354;1308;22336;-57
2022/12/20 07:40:07;;;;;;;10.00;5.40;;;;;;;-2.28;54.13;100912.54;106278;1306;124071;-61
2022/12/20 07:42:34;;;;;;;7.20;5.00;;;;;;;-2.27;54.06;100913.29;106413;1291;22280;-61
2022/12/20 07:45:07;;;;;;;10.70;5.10;;;;;;;-2.26;54.15;100911.81;106308;1283;137176;-61
2022/12/20 07:47:34;;;;;;;11.50;6.20;;;;;;;-2.24;54.65;100907.67;106410;1293;22297;-62
2022/12/20 07:50:02;;;;;;;12.30;6.10;;;;;;;-2.20;54.53;100903.61;106399;1293;22347;-62
2022/12/20 07:52:28;;;;;;;13.80;7.70;;;;;;;-2.17;54.83;100906.70;106303;1306;137265;-62
2022/12/20 07:55:00;;;;;;;11.60;5.80;;;;;;;-2.17;54.66;100902.19;106455;1291;22160;-62
2022/12/20 07:57:33;;;;;;;13.20;6.80;;;;;;;-2.12;54.28;100901.77;106089;1307;138401;-63
2022/12/20 08:00:00;;;;;;;12.80;6.10;;;;;;;-2.09;54.48;100892.20;106361;1306;23107;-62
2022/12/20 08:03:01;;;;;;;6.80;4.00;;;;;;;-2.06;54.34;100880.21;106301;1306;138544;-62
2022/12/20 08:05:28;;;;;;;11.00;5.30;;;;;;;-2.03;54.52;100874.71;106382;1284;22228;-62
2022/12/20 08:07:55;;;;;;;18.30;8.50;;;;;;;-2.01;54.43;100871.55;106426;1306;22129;-62
2022/12/20 08:10:25;;;;;;;10.70;5.90;;;;;;;-1.99;54.59;100873.88;106329;1307;137388;-62
2022/12/20 08:12:51;;;;;;;;;;;;;;;-1.97;54.45;100880.46;106410;1307;22433;-62
2022/12/20 08:15:20;;;;;;;11.60;6.00;;;;;;;-1.97;54.85;100882.71;106350;1306;123762;-62
2022/12/20 08:17:48;;;;;;;11.50;5.80;;;;;;;-1.95;54.67;100885.74;106416;1292;22236;-63
2022/12/20 08:20:15;;;;;;;10.40;6.20;;;;;;;-1.94;54.81;100882.99;106375;1283;23546;-62
2022/12/20 08:22:42;;;;;;;;;;;;;;;-1.92;55.17;100888.87;106286;1307;137569;-62
2022/12/20 16:24:54;;;;;;;21.70;12.70;;;;;;;-1.02;72.49;100335.52;99813;1311;557673;-56
2022/12/20 16:27:20;;;;;;;;;;;;;;;-0.92;72.77;100335.24;100858;1306;217792;-56
2022/12/20 16:29:47;;;;;;;17.90;10.00;;;;;;;-0.92;73.35;100337.95;101057;1293;124159;-56
2022/12/20 16:32:17;;;;;;;19.80;10.60;;;;;;;-0.94;73.75;100335.11;101064;1306;26155;-56
2022/12/20 16:34:44;;;;;;;25.90;10.60;;;;;;;-0.96;74.25;100333.56;101016;1299;26691;-56
2022/12/20 16:37:11;;;;;;;;;;;;;;;-0.97;74.58;100338.67;101411;1305;138240;-56
2022/12/20 16:39:38;;;;;;;22.60;11.70;;;;;;;-0.99;74.93;100336.19;101462;1303;22720;-55
2022/12/20 16:42:11;;;;;;;30.70;14.30;;;;;;;-1.00;75.13;100336.73;101048;1297;137041;-56
2022/12/20 16:44:41;;;;;;;63.40;30.90;;;;;;;-1.06;75.38;100324.48;105778;1300;22372;-54
2022/12/20 16:47:08;;;;;;;25.50;13.40;;;;;;;-1.01;75.78;100321.69;105695;1314;139412;-54
2022/12/20 16:49:35;;;;;;;26.90;11.40;;;;;;;-1.03;75.95;100309.92;105765;1299;22237;-54
2022/12/20 16:52:03;;;;;;;20.90;11.30;;;;;;;-1.05;76.12;100295.70;105680;1300;22382;-59
2022/12/20 16:54:30;;;;;;;22.60;11.50;;;;;;;-1.06;76.57;100290.06;105605;1314;138007;-58
2022/12/20 16:56:57;;;;;;;26.00;12.00;;;;;;;-1.07;76.75;100288.58;105729;1299;22149;-58
2022/12/20 16:59:24;;;;;;;24.50;12.40;;;;;;;-1.07;77.02;100288.52;105644;1314;139712;-58
2022/12/20 17:01:52;;;;;;;26.70;13.30;;;;;;;-1.06;77.11;100284.91;105637;1308;22142;-58
2022/12/20 17:04:20;;;;;;;27.40;13.60;;;;;;;-1.05;77.37;100277.99;105670;1317;23069;-58
2022/12/20 17:06:46;;;;;;;34.80;15.70;;;;;;;-1.03;77.38;100277.16;105599;1308;138528;-58
2022/12/20 17:09:15;;;;;;;27.40;14.10;;;;;;;-1.02;77.15;100276.53;105746;1300;22293;-58
2022/12/20 17:32:46;;;;;;;30.60;16.00;;;;;;;-0.69;76.05;100245.91;100015;1321;557574;-59
2022/12/20 17:35:21;;;;;;;28.70;14.10;;;;;;;-0.59;75.42;100235.88;101083;1296;274649;-59
2022/12/20 17:37:49;;;;;;;24.50;13.60;;;;;;;-0.56;75.28;100233.95;101569;1301;22505;-58
2022/12/20 17:40:16;;;;;;;28.90;14.30;;;;;;;-0.55;75.04;100231.14;101599;1304;24541;-58
2022/12/20 17:42:43;;;;;;;;;;;;;;;-0.54;74.61;100236.23;101384;1305;137285;-58
2022/12/20 17:45:30;;;;;;;29.60;14.00;;;;;;;-0.54;74.63;100236.20;101587;1299;25338;-58
2022/12/20 17:47:57;;;;;;;36.90;17.50;;;;;;;-0.55;74.51;100233.41;101370;1299;137303;-60
2022/12/20 17:50:24;;;;;;;;;;;;;;;-0.54;74.34;100232.65;101222;1321;24335;-59
2022/12/20 17:52:51;;;;;;;29.50;13.60;;;;;;;-0.55;74.22;100231.44;101276;1299;27024;-60
2022/12/20 17:55:23;;;;;;;32.20;14.60;;;;;;;-0.55;74.10;100221.50;101604;1300;137280;-59
2022/12/20 17:57:51;;;;;;;31.00;15.10;;;;;;;-0.55;74.06;100212.81;101670;1304;23926;-59
2022/12/20 18:00:23;;;;;;;35.30;16.10;;;;;;;-0.55;74.04;100213.88;105906;1310;137397;-58
2022/12/20 18:02:50;;;;;;;23.70;11.80;;;;;;;-0.56;73.97;100212.51;106195;1310;22184;-58
2022/12/20 18:05:17;;;;;;;32.40;13.70;;;;;;;-0.56;74.02;100208.55;105990;1295;138280;-59
2022/12/20 18:07:48;;;;;;;29.20;13.50;;;;;;;-0.55;73.92;100212.81;106105;1304;22418;-59
2022/12/20 18:10:15;;;;;;;25.40;13.00;;;;;;;-0.55;74.10;100212.20;106138;1303;22188;-59
2022/12/20 18:12:42;;;;;;;22.20;11.80;;;;;;;-0.54;74.12;100202.84;106102;1301;138455;-59
2022/12/20 18:15:09;;;;;;;27.30;12.80;;;;;;;-0.52;74.27;100203.51;106275;1309;22876;-58
2022/12/20 18:17:37;;;;;;;22.60;10.50;;;;;;;-0.51;74.22;100198.59;106150;1310;138789;-58
2022/12/20 18:20:06;;;;;;;27.60;11.40;;;;;;;-0.49;74.31;100193.70;106291;1295;22891;-59
2022/12/20 18:22:33;;;;;;;37.40;16.00;;;;;;;-0.47;74.02;100192.07;106109;1309;22119;-58
2022/12/20 18:25:02;;;;;;;27.80;13.30;;;;;;;-0.45;74.26;100192.37;106125;1302;137865;-59
2022/12/20 18:27:30;;;;;;;24.60;12.40;;;;;;;-0.44;73.85;100194.16;106279;1310;22225;-59
2022/12/20 18:29:56;;;;;;;22.00;11.70;;;;;;;-0.42;74.21;100190.52;106180;1309;138117;-60
2022/12/20 18:32:23;;;;;;;21.50;10.20;;;;;;;-0.40;73.96;100192.17;106266;1309;22224;-59
2022/12/20 18:34:50;;;;;;;21.50;11.70;;;;;;;-0.39;73.92;100188.85;106218;1291;22133;-59
2022/12/20 18:37:17;;;;;;;21.80;11.20;;;;;;;-0.38;74.04;100184.40;106151;1309;137568;-59
2022/12/20 18:39:44;;;;;;;26.10;14.00;;;;;;;-0.37;73.98;100182.56;106263;1309;22316;-55
2022/12/20 18:42:10;;;;;;;26.70;12.60;;;;;;;-0.37;73.90;100183.77;106049;1311;137361;-55
2022/12/20 18:44:37;;;;;;;23.40;11.20;;;;;;;-0.36;73.85;100182.05;106161;1311;22138;-55
2022/12/20 18:47:04;;;;;;;;;;;;;;;-0.35;74.28;100181.83;106055;1311;22386;-55
2022/12/20 18:49:31;;;;;;;37.20;16.00;;;;;;;-0.36;73.98;100179.72;106022;1311;123821;-54
2022/12/20 18:51:58;;;;;;;25.00;13.00;;;;;;;-0.36;73.99;100174.00;106135;1293;22370;-55
2022/12/20 18:54:25;;;;;;;23.70;11.60;;;;;;;-0.35;74.17;100175.00;106028;1310;138499;-55
2022/12/20 18:56:52;;;;;;;;;;;;;;;-0.36;74.15;100179.91;106092;1302;22400;-55
2022/12/20 18:59:20;;;;;;;22.80;11.00;;;;;;;-0.36;74.09;100184.95;106043;1290;123988;-54
2022/12/20 19:01:46;;;;;;;20.00;10.10;;;;;;;-0.36;74.09;100172.59;106255;1309;23575;-55
2022/12/20 19:04:14;;;;;;;24.60;11.40;;;;;;;-0.35;74.10;100167.34;106257;1307;22103;-54
2022/12/20 19:06:49;;;;;;;23.20;12.40;;;;;;;-0.33;74.03;100167.20;106170;1302;138395;-55
2022/12/20 19:09:16;;;;;;;24.20;12.70;;;;;;;-0.32;74.13;100165.63;106252;1309;22225;-55
2022/12/20 19:11:43;;;;;;;23.20;12.10;;;;;;;-0.34;74.24;100157.51;106147;1301;138262;-55
2022/12/20 19:14:10;;;;;;;27.90;13.20;;;;;;;-0.29;74.30;100166.69;106253;1309;23189;-55
2022/12/20 19:16:38;;;;;;;25.90;14.00;;;;;;;-0.27;74.37;100163.65;106251;1304;22170;-54
2022/12/20 19:19:07;;;;;;;24.90;12.90;;;;;;;-0.26;74.38;100162.77;106230;1309;137616;-55
2022/12/20 19:21:35;;;;;;;22.10;12.70;;;;;;;-0.25;74.46;100149.77;106291;1310;23462;-55
2022/12/20 19:24:04;;;;;;;24.40;13.10;;;;;;;-0.23;74.49;100147.14;106126;1309;137260;-55
2022/12/20 19:26:31;;;;;;;22.20;12.50;;;;;;;-0.24;74.21;100149.86;106266;1310;22099;-55
2022/12/20 19:28:58;;;;;;;26.20;12.20;;;;;;;-0.23;74.30;100147.81;106347;1295;22332;-55
2022/12/20 19:31:27;;;;;;;23.00;12.10;;;;;;;-0.23;74.01;100148.85;106429;1306;137288;-55
2022/12/20 19:33:55;;;;;;;28.40;13.20;;;;;;;-0.23;74.26;100145.14;106793;1295;22229;-55
2022/12/20 19:36:37;;;;;;;22.40;11.80;;;;;;;-0.23;74.26;100146.70;106693;1302;137540;-55
2022/12/20 19:39:11;;;;;;;28.50;13.10;;;;;;;-0.24;74.22;100141.05;106833;1303;22889;-55
2022/12/20 19:41:38;;;;;;;29.70;14.70;;;;;;;-0.24;74.22;100139.21;106655;1295;138053;-55
2022/12/20 19:44:06;;;;;;;27.10;13.80;;;;;;;-0.25;74.23;100147.08;106779;1303;22132;-56
2022/12/20 19:46:32;;;;;;;66.70;31.90;;;;;;;-0.26;74.27;100143.80;106791;1303;22234;-54
2022/12/20 19:48:59;;;;;;;;;;;;;;;-0.26;74.46;100134.77;106643;1303;138183;-55
2022/12/20 19:51:26;;;;;;;40.10;20.80;;;;;;;-0.26;74.24;100128.67;106783;1296;22148;-54
2022/12/20 19:53:53;;;;;;;56.00;23.50;;;;;;;-0.25;74.42;100124.12;106662;1303;138258;-55
2022/12/20 19:56:22;;;;;;;33.50;16.10;;;;;;;-0.25;74.40;100121.24;106764;1303;22157;-54
2022/12/20 19:58:49;;;;;;;31.20;15.80;;;;;;;-0.25;74.50;100118.00;106798;1294;22124;-54
2022/12/20 20:01:16;;;;;;;52.00;24.60;;;;;;;-0.24;74.57;100112.08;106645;1295;138556;-55
2022/12/20 20:03:43;;;;;;;47.10;24.10;;;;;;;-0.22;74.50;100112.36;106776;1303;23012;-54
2022/12/20 20:06:10;;;;;;;40.60;21.10;;;;;;;-0.20;74.75;100119.83;106655;1303;138852;-55
2022/12/20 20:08:37;;;;;;;;;;;;;;;-0.20;74.69;100115.11;106782;1303;23416;-54
2022/12/20 20:11:04;;;;;;;31.50;17.50;;;;;;;-0.18;74.61;100115.81;106778;1288;22199;-54
2022/12/20 20:13:36;;;;;;;26.40;13.70;;;;;;;-0.17;74.71;100118.14;106653;1295;137227;-55
2022/12/20 20:16:03;;;;;;;31.60;15.50;;;;;;;-0.16;74.56;100116.33;106612;1287;22131;-54
2022/12/20 20:18:32;;;;;;;28.40;15.70;;;;;;;-0.16;74.70;100111.45;106623;1301;137629;-55
2022/12/20 20:20:59;;;;;;;28.60;15.40;;;;;;;-0.14;74.83;100109.69;106754;1298;22112;-55
2022/12/20 20:23:26;;;;;;;22.70;13.40;;;;;;;-0.14;74.79;100107.14;106525;1300;138887;-55
2022/12/20 20:25:55;;;;;;;20.30;11.70;;;;;;;-0.14;74.81;100101.98;106766;1303;22141;-55
2022/12/20 20:28:23;;;;;;;22.40;12.80;;;;;;;-0.15;74.60;100107.46;106796;1303;22924;-55
2022/12/20 20:30:58;;;;;;;21.90;11.60;;;;;;;-0.16;74.68;100110.58;106635;1287;137541;-55
2022/12/20 20:33:24;;;;;;;21.10;11.90;;;;;;;-0.17;74.54;100110.31;106823;1292;22195;-55
2022/12/20 20:35:53;;;;;;;20.30;11.10;;;;;;;-0.17;74.64;100111.92;106667;1303;139964;-55
2022/12/20 20:38:20;;;;;;;20.90;11.40;;;;;;;-0.16;74.49;100108.10;106768;1303;22287;-55
2022/12/20 20:40:46;;;;;;;24.90;10.50;;;;;;;-0.16;74.64;100112.31;106770;1296;22209;-55
2022/12/20 20:43:13;;;;;;;19.60;10.90;;;;;;;-0.13;74.46;100111.11;106590;1295;138569;-55
2022/12/20 20:45:40;;;;;;;23.30;11.50;;;;;;;-0.10;74.55;100114.71;106636;1303;22776;-55
2022/12/20 20:48:06;;;;;;;19.90;10.10;;;;;;;-0.08;74.47;100116.18;106675;1290;138773;-55
2022/12/20 20:50:33;;;;;;;23.50;12.40;;;;;;;-0.04;74.72;100119.76;106784;1302;22181;-55
2022/12/20 20:53:00;;;;;;;24.10;11.80;;;;;;;-0.02;74.72;100118.37;106760;1303;22912;-55
2022/12/20 20:55:26;;;;;;;23.40;12.50;;;;;;;0.02;74.55;100122.99;106656;1303;137836;-55
2022/12/20 20:57:53;;;;;;;23.40;11.70;;;;;;;0.04;74.62;100117.06;106728;1303;22352;-55
2022/12/20 21:00:20;;;;;;;;;;;;;;;0.06;74.31;100112.13;106679;1303;137247;-55